Decoded Metar for NZCH (CHRISTCHURCH in NEW ZEALAND) (IATA:CHC) | Meteo·Mobile Aviation Weather
aviador You're here:

NZCH Decoded Metar

CHRISTCHURCH in NEW ZEALAND
Report Time2019-10-21 06:30:00
UTC Time2019-10-21 07:10:50
Flight Rules vfr VFR
Wind200° at 11 kt
W.Decomp.*RWY 20: 10.1 kt HW 4.3 kt LCW
RWY 11: 4.3 kt HW 10.1 kt RCW
Visibility9999 m
Phenomena:N/A
Clouds:Few 050 Hf
Expected CloudBase > 2,400 ft AGL from Temp-Dew spread
CeilingNone
Temp10°C (ISA -5)
Dew Point04°C (67% RH)
AAT4.7°C
QNH0999 hPa
Density Alt131 ft
Elevation112 ft
Report Wrong Elevation
Raw Report
NZCH 210630Z AUTO 20011KT 9999 FEW050/// 10/04 Q0999 BECMG
01005KT=

Extra information for NZCH:More info

Metar Taf Metar & Taf Last 4 Metars F.Rules Stats Wind Profile Meteogram Temp Stats Airport Information Weather charts Add Link Nearby VenuesMetar ALERT Operation Metar Decoded Social comments